• Join FlightAware (Why Join?)
  • Login
  • US Flag 
02:33AM EST


 

Airport Tracker/Info


-or-


 

Live Flight TrackerFlight Track Log ✈ FLG4222 ✈ 16-Jan-2014 ✈ KATL - KFWA

Flight Track Log - Related Links

Times and Time Zones

All times are in EST time to prevent confusion due to time zone crossing. See the FLG4222 flight status page for this flight to view local times or setup timezone preferences in your user account.

Time Position Orientation Groundspeed Altitude Reporting Facility
EST Latitude Longitude Course Direction KTS MPH feet Rate Location/Type
08:09PM 33.6536 -84.4781 286° West 441 507 2,900  Level Atlanta Center
08:10PM 33.6667 -84.5333 286° West 245 282 4,400 2,629 Climbing Atlanta TRACON
08:11PM 33.7167 -84.5833 320° Northwest 250 288 7,500 2,400 Climbing Atlanta TRACON
08:13PM 33.8850 -84.5842 360° North 287 330 12,200 1,938 Climbing Atlanta Center
08:14PM 33.9872 -84.5850 360° North 311 358 13,800 1,500 Climbing Atlanta Center
08:15PM 34.0728 -84.5881 358° North 329 379 15,200 1,550 Climbing Atlanta Center
08:16PM 34.1833 -84.5964 356° North 353 406 16,900 1,600 Climbing Atlanta Center
08:17PM 34.2856 -84.6019 357° North 365 420 18,400 1,400 Climbing Atlanta Center
08:18PM 34.3897 -84.6103 356° North 365 420 19,700 1,150 Climbing Atlanta Center
08:19PM 34.4964 -84.6183 356° North 371 427 20,700 950 Climbing Atlanta Center
08:20PM 34.5942 -84.6292 355° North 376 433 21,600 650 Climbing Atlanta Center
08:21PM 34.7047 -84.6403 355° North 387 445 22,000 200 Climbing Atlanta Center
08:22PM 34.8281 -84.6486 357° North 410 472 22,000  Level Atlanta Center
08:23PM 34.9531 -84.6597 356° North 431 496 22,000 350 Level Atlanta Center
08:24PM 35.0825 -84.6708 356° North 444 511 22,700 850 Climbing Atlanta Center
08:25PM 35.2181 -84.6819 356° North 453 521 23,700 750 Climbing Atlanta Center
08:26PM 35.3431 -84.6906 357° North 453 521 24,200 550 Climbing Atlanta Center
08:27PM 35.4725 -84.7017 356° North 453 521 24,800 500 Climbing Atlanta Center
08:28PM 35.5892 -84.7103 357° North 466 536 25,200 500 Climbing Atlanta Center
08:29PM 35.7164 -84.7217 356° North 466 536 25,800 500 Climbing Atlanta Center
08:30PM 35.8436 -84.7303 357° North 460 529 26,200 450 Climbing Atlanta Center
08:31PM 35.9728 -84.7444 355° North 460 529 26,700 500 Climbing Atlanta Center
08:32PM 36.1000 -84.7531 357° North 460 529 27,200 529 Climbing Atlanta Center
08:34PM 36.2708 -84.7672 356° North 452 520 27,900 348 Climbing Indianapolis Center
08:35PM 36.3956 -84.7778 356° North 449 517 28,000 49 Climbing Indianapolis Center
08:36PM 36.5233 -84.7889 356° North 456 525 28,000  Level Indianapolis Center
08:37PM 36.6514 -84.7994 356° North 461 531 28,000  Level Indianapolis Center
08:38PM 36.7783 -84.8114 356° North 458 527 28,000  Level Indianapolis Center
08:39PM 36.9044 -84.8217 356° North 455 524 28,000  Level Indianapolis Center
08:40PM 37.0486 -84.8336 356° North 454 522 28,000  Level Indianapolis Center
08:41PM 37.1769 -84.8442 356° North 458 527 28,000  Level Indianapolis Center
08:42PM 37.3033 -84.8556 356° North 454 522 28,000  Level Indianapolis Center
08:43PM 37.4333 -84.8675 356° North 462 532 28,000  Level Indianapolis Center
08:44PM 37.5653 -84.8783 356° North 471 542 28,000  Level Indianapolis Center
08:45PM 37.6942 -84.8911 356° North 465 535 28,000  Level Indianapolis Center
08:46PM 37.8256 -84.9025 356° North 470 541 28,000  Level Indianapolis Center
08:47PM 37.9817 -84.9153 356° North 478 550 28,000  Level Indianapolis Center
08:48PM 38.1125 -84.9283 356° North 471 542 28,000  Level Indianapolis Center
08:49PM 38.2433 -84.9397 356° North 469 540 28,000  Level Indianapolis Center
08:50PM 38.3767 -84.9525 356° North 475 547 28,000  Level Indianapolis Center
08:51PM 38.5094 -84.9647 356° North 476 548 28,000  Level Indianapolis Center
08:52PM 38.6497 -84.9764 356° North 479 551 28,000  Level Indianapolis Center
08:53PM 38.7836 -84.9886 356° North 483 556 28,000 -683 Level Indianapolis Center
08:54PM 38.9164 -85.0028 355° North 482 555 26,600 -1,403 Descending Indianapolis Center
08:55PM 39.0461 -85.0147 356° North 474 545 25,100 -1,268 Descending Indianapolis Center
08:56PM 39.1711 -85.0247 356° North 459 528 24,000 -634 Descending Indianapolis Center
08:57PM 39.3161 -85.0383 356° North 442 509 23,800 -1,122 Descending Indianapolis Center
08:58PM 39.4333 -85.0489 356° North 432 497 21,700 -2,000 Descending Indianapolis Center
08:59PM 39.5411 -85.0592 356° North 403 464 19,700 -2,000 Descending Indianapolis Center
09:00PM 39.6461 -85.0683 356° North 384 442 17,600 -1,317 Descending Indianapolis Center
09:01PM 39.7519 -85.0769 356° North 385 443 17,000 -581 Descending Indianapolis Center
09:02PM 39.8536 -85.0869 356° North 374 430 16,400 -927 Descending Indianapolis Center
09:03PM 39.9519 -85.0964 356° North 362 417 15,100 -1,220 Descending Indianapolis Center
09:04PM 40.0675 -85.1058 356° North 350 403 13,900 -1,073 Descending Indianapolis Center
09:05PM 40.1694 -85.1164 355° North 364 419 12,900 -976 Descending Indianapolis Center
09:06PM 40.2708 -85.1272 355° North 367 422 11,900 -927 Descending Indianapolis Center
09:07PM 40.3686 -85.1333 357° North 359 413 11,000 -732 Descending Indianapolis Center
09:09PM 40.4539 -85.1114 11° North 324 373 10,400 -780 Descending Indianapolis Center
09:10PM 40.5364 -85.0931 10° North 308 354 9,400 -1,073 Descending Indianapolis Center
09:11PM 40.6292 -85.0697 11° North 291 335 8,200 -1,105 Descending Indianapolis Center
09:11PM 40.6933 -85.0497 13° North 292 336 7,300 -947 Descending Chicago Center
09:12PM 40.7739 -85.0278 12° North 295 339 6,400 -919 Descending Chicago Center
09:14PM 40.8519 -85.0056 12° North 290 334 5,400 -1,024 Descending Chicago Center
09:15PM 40.9264 -84.9869 11° North 283 326 4,300 -976 Descending Chicago Center
09:16PM 40.9894 -84.9661 14° North 251 289 3,400 -968 Descending Chicago Center
09:17PM 41.0639 -84.9625 North 231 266 2,300 -537 Descending Chicago Center
09:18PM 41.0942 -85.0119 309° West 198 228 2,300  Level Chicago Center
09:19PM 41.0806 -85.0603 250° West 167 192 2,300  Level Chicago Center
09:20PM 41.0514 -85.0961 223° Southwest 153 176 2,300 -145 Level Chicago Center
09:21PM 41.0272 -85.1269 224° Southwest 137 158 2,000 -244 Descending Chicago Center
09:22PM 41.0036 -85.1578 225° Southwest 134 154 1,800 -197 Descending Chicago Center